createdAt,value
2019-04-10T00:01:36.240Z,9.60
2019-04-10T00:04:07.149Z,9.70
2019-04-10T00:06:39.572Z,9.80
2019-04-10T00:09:10.594Z,9.70
2019-04-10T00:11:41.369Z,9.80
2019-04-10T00:14:12.353Z,9.70
2019-04-10T00:16:43.077Z,9.70
2019-04-10T00:19:14.791Z,9.60
2019-04-10T00:21:45.398Z,9.70
2019-04-10T00:24:15.907Z,9.70
2019-04-10T00:26:46.277Z,9.60
2019-04-10T00:29:16.671Z,9.60
2019-04-10T00:31:47.112Z,9.50
2019-04-10T00:34:17.756Z,9.60
2019-04-10T00:36:49.067Z,9.70
2019-04-10T00:39:20.124Z,9.60
2019-04-10T00:41:50.748Z,9.60
2019-04-10T00:44:21.643Z,9.70
2019-04-10T00:46:52.792Z,9.80
2019-04-10T00:49:23.957Z,9.70
2019-04-10T00:51:55.374Z,9.60
2019-04-10T00:54:26.171Z,9.50
2019-04-10T00:56:56.973Z,9.50
2019-04-10T00:59:28.238Z,9.50
2019-04-10T01:01:58.861Z,9.50
2019-04-10T01:04:29.377Z,9.70
2019-04-10T01:07:02.190Z,9.70
2019-04-10T01:09:33.255Z,9.60
2019-04-10T01:12:04.029Z,9.50
2019-04-10T01:14:34.528Z,9.50
2019-04-10T01:17:06.138Z,9.50
2019-04-10T01:19:37.080Z,9.50
2019-04-10T01:22:08.576Z,9.50
2019-04-10T01:24:39.420Z,9.40
2019-04-10T01:27:09.799Z,9.30
2019-04-10T01:29:40.257Z,9.30
2019-04-10T01:32:11.662Z,9.30
2019-04-10T01:34:43.389Z,9.30
2019-04-10T01:37:15.134Z,9.40
2019-04-10T01:39:46.459Z,9.20
2019-04-10T01:42:16.961Z,9.30
2019-04-10T01:44:49.056Z,9.30
2019-04-10T01:47:21.832Z,9.20
2019-04-10T01:49:52.333Z,9.10
2019-04-10T01:52:22.783Z,9.10
2019-04-10T01:54:55.502Z,9.00
2019-04-10T01:57:25.273Z,9.00
2019-04-10T01:59:56.309Z,9.00
2019-04-10T02:02:31.641Z,8.90
2019-04-10T02:05:02.387Z,8.90
2019-04-10T02:07:33.994Z,9.00
2019-04-10T02:10:09.966Z,9.10
2019-04-10T02:12:41.026Z,9.10
2019-04-10T02:15:14.479Z,9.00
2019-04-10T02:17:46.408Z,9.10
2019-04-10T02:23:36.477Z,9.00
2019-04-10T02:26:07.429Z,8.90
2019-04-10T02:28:48.205Z,9.00
2019-04-10T02:31:28.547Z,9.00
2019-04-10T02:34:01.612Z,8.90
2019-04-10T02:36:34.434Z,8.90
2019-04-10T02:39:19.053Z,9.00
2019-04-10T02:41:39.529Z,8.90
2019-04-10T02:44:10.302Z,8.90
2019-04-10T02:46:41.317Z,8.90
2019-04-10T02:49:14.206Z,8.90
2019-04-10T02:51:45.344Z,8.90
2019-04-10T02:54:19.366Z,8.90
2019-04-10T02:56:52.678Z,8.90
2019-04-10T02:59:27.368Z,8.80
2019-04-10T03:01:58.027Z,8.80
2019-04-10T03:07:24.153Z,8.80
2019-04-10T03:10:07.444Z,8.80
2019-04-10T03:12:28.453Z,8.90
2019-04-10T03:15:01.001Z,9.00
2019-04-10T03:17:33.114Z,9.10
2019-04-10T03:20:05.829Z,9.40
2019-04-10T03:22:36.671Z,10.00
2019-04-10T03:25:08.927Z,10.60
2019-04-10T03:27:40.668Z,11.10
2019-04-10T03:30:15.144Z,11.80
2019-04-10T03:32:58.129Z,12.20
2019-04-10T03:35:37.555Z,12.40
2019-04-10T03:38:07.944Z,12.50
2019-04-10T03:40:39.420Z,13.10
2019-04-10T03:43:13.982Z,13.60
2019-04-10T03:45:44.477Z,14.10
2019-04-10T03:48:20.143Z,13.80
2019-04-10T03:50:52.285Z,14.50
2019-04-10T03:53:26.378Z,14.60
2019-04-10T03:55:59.139Z,14.90
2019-04-10T03:58:29.866Z,15.10
2019-04-10T04:01:02.674Z,15.60
2019-04-10T04:03:33.435Z,15.50
2019-04-10T04:06:03.930Z,15.90
2019-04-10T04:08:35.281Z,16.80
2019-04-10T04:11:05.947Z,17.20
2019-04-10T04:13:36.808Z,17.60
2019-04-10T04:16:07.205Z,17.90
2019-04-10T04:18:37.797Z,18.80
2019-04-10T04:21:08.377Z,18.40
2019-04-10T04:23:38.823Z,18.70
2019-04-10T04:26:10.627Z,18.00
2019-04-10T04:28:44.180Z,17.30
2019-04-10T04:31:16.143Z,17.40
2019-04-10T04:33:46.931Z,18.00
2019-04-10T04:36:18.279Z,18.10
2019-04-10T04:38:49.174Z,18.30
2019-04-10T04:41:19.662Z,18.20
2019-04-10T04:43:50.403Z,18.60
2019-04-10T04:46:24.037Z,18.50
2019-04-10T04:48:54.465Z,18.80
2019-04-10T04:51:25.895Z,18.80
2019-04-10T04:53:56.927Z,17.80
2019-04-10T04:56:28.218Z,19.20
2019-04-10T04:58:59.441Z,19.50
2019-04-10T05:01:30.175Z,19.50
2019-04-10T05:04:00.780Z,19.50
2019-04-10T05:06:31.307Z,19.30
2019-04-10T05:09:02.752Z,18.80
2019-04-10T05:11:42.598Z,18.80
2019-04-10T05:14:17.501Z,19.40
2019-04-10T05:16:48.149Z,19.40
2019-04-10T05:19:26.208Z,18.10
2019-04-10T05:22:07.952Z,17.70
2019-04-10T05:24:40.421Z,17.30
2019-04-10T05:27:11.886Z,18.00
2019-04-10T05:29:43.028Z,17.70
2019-04-10T05:32:14.447Z,18.30
2019-04-10T05:35:01.186Z,17.70
2019-04-10T05:37:32.363Z,18.30
2019-04-10T05:40:21.859Z,19.70
2019-04-10T05:42:57.456Z,20.10
2019-04-10T05:45:30.156Z,18.90
2019-04-10T05:48:11.088Z,17.40
2019-04-10T05:50:53.896Z,16.90
2019-04-10T05:53:23.040Z,17.50
2019-04-10T05:55:53.839Z,19.10
2019-04-10T05:58:26.206Z,18.90
2019-04-10T06:01:01.024Z,18.50
2019-04-10T06:03:34.758Z,19.80
2019-04-10T06:06:06.846Z,19.60
2019-04-10T06:08:39.333Z,20.20
2019-04-10T06:11:10.652Z,21.30
2019-04-10T06:13:41.157Z,22.60
2019-04-10T06:16:12.098Z,22.00
2019-04-10T06:18:43.050Z,21.30
2019-04-10T06:21:17.211Z,21.10
2019-04-10T06:23:49.859Z,21.40
2019-04-10T06:26:21.867Z,21.40
2019-04-10T06:28:52.721Z,20.60
2019-04-10T06:31:23.264Z,18.40
2019-04-10T06:33:53.730Z,17.30
2019-04-10T06:36:25.074Z,16.60
2019-04-10T06:38:57.041Z,16.40
2019-04-10T06:41:27.544Z,16.30
2019-04-10T06:43:58.003Z,16.20
2019-04-10T06:46:28.601Z,16.20
2019-04-10T06:48:59.007Z,16.00
2019-04-10T06:51:37.873Z,16.10
2019-04-10T06:54:11.318Z,16.30
2019-04-10T06:56:41.049Z,16.50
2019-04-10T06:59:12.167Z,16.70
2019-04-10T07:01:49.521Z,16.90
2019-04-10T07:04:15.480Z,16.80
2019-04-10T07:06:57.327Z,17.00
2019-04-10T07:09:25.355Z,17.30
2019-04-10T07:11:58.329Z,17.30
2019-04-10T07:14:26.900Z,17.60
2019-04-10T07:17:01.687Z,17.60
2019-04-10T07:19:30.304Z,17.40
2019-04-10T07:22:01.923Z,17.30
2019-04-10T07:24:36.986Z,17.50
2019-04-10T07:27:06.293Z,17.60
2019-04-10T07:29:38.354Z,17.50
2019-04-10T07:32:13.286Z,17.60
2019-04-10T07:34:51.302Z,17.70
2019-04-10T07:37:24.043Z,17.80
2019-04-10T07:39:53.809Z,17.70
2019-04-10T07:42:30.353Z,17.90
2019-04-10T07:44:56.909Z,18.00
2019-04-10T07:47:27.732Z,18.00
2019-04-10T07:50:01.611Z,17.80
2019-04-10T07:52:32.919Z,17.70
2019-04-10T07:55:04.939Z,17.90
2019-04-10T07:57:36.372Z,18.10
2019-04-10T08:00:09.039Z,18.20
2019-04-10T08:02:40.581Z,18.40
2019-04-10T08:05:12.279Z,18.50
2019-04-10T08:07:43.135Z,18.50
2019-04-10T08:10:13.761Z,18.70
2019-04-10T08:12:50.085Z,18.70
2019-04-10T08:15:16.868Z,18.80
2019-04-10T08:17:50.515Z,18.80
2019-04-10T08:20:19.417Z,19.00
2019-04-10T08:22:51.115Z,19.10
2019-04-10T08:25:22.772Z,19.20
2019-04-10T08:27:54.323Z,19.40
2019-04-10T08:30:25.921Z,19.60
2019-04-10T08:33:01.048Z,19.70
2019-04-10T08:35:29.378Z,19.90
2019-04-10T08:38:18.975Z,20.10
2019-04-10T08:40:49.413Z,20.20
2019-04-10T08:43:20.232Z,20.20
2019-04-10T08:45:52.208Z,20.40
2019-04-10T08:48:24.013Z,20.60
2019-04-10T08:50:54.715Z,20.90
2019-04-10T08:53:27.074Z,21.10
2019-04-10T08:55:57.216Z,21.10
2019-04-10T08:58:27.666Z,21.00
2019-04-10T09:00:58.689Z,20.90
2019-04-10T09:03:29.212Z,20.90
2019-04-10T09:06:00.849Z,21.00
2019-04-10T09:08:31.453Z,21.30
2019-04-10T09:11:02.963Z,21.50
2019-04-10T09:13:34.635Z,21.20
2019-04-10T09:16:06.586Z,21.30
2019-04-10T09:18:37.303Z,21.30
2019-04-10T09:21:07.936Z,21.40
2019-04-10T09:23:45.555Z,21.50
2019-04-10T09:26:11.416Z,21.50
2019-04-10T09:28:42.458Z,21.60
2019-04-10T09:31:13.547Z,21.60
2019-04-10T09:33:45.245Z,21.60
2019-04-10T09:36:15.955Z,21.70
2019-04-10T09:38:47.263Z,21.90
2019-04-10T09:41:18.015Z,22.20
2019-04-10T09:43:49.689Z,22.40
2019-04-10T09:46:20.931Z,22.30
2019-04-10T09:48:52.003Z,22.50
2019-04-10T09:51:23.553Z,22.80
2019-04-10T09:53:54.171Z,22.70
2019-04-10T09:56:25.507Z,22.70
2019-04-10T09:58:56.754Z,22.90
2019-04-10T10:01:28.678Z,23.10
2019-04-10T10:03:59.449Z,23.10
2019-04-10T10:06:33.506Z,23.10
2019-04-10T10:09:02.064Z,23.10
2019-04-10T10:11:32.491Z,23.30
2019-04-10T10:14:04.047Z,23.60
2019-04-10T10:16:36.003Z,24.00
2019-04-10T10:19:06.451Z,24.00
2019-04-10T10:21:36.921Z,23.70
2019-04-10T10:24:07.307Z,23.80
2019-04-10T10:26:37.726Z,24.00
2019-04-10T10:29:09.035Z,23.90
2019-04-10T10:31:40.265Z,24.00
2019-04-10T10:34:10.935Z,24.00
2019-04-10T10:36:45.808Z,23.90
2019-04-10T10:39:21.084Z,24.00
2019-04-10T10:41:54.330Z,24.00
2019-04-10T10:44:25.896Z,24.00
2019-04-10T10:47:00.236Z,24.10
2019-04-10T10:49:33.391Z,23.80
2019-04-10T10:52:03.999Z,23.80
2019-04-10T11:07:35.137Z,24.00
2019-04-10T11:10:07.086Z,24.20
2019-04-10T11:12:38.449Z,24.40
2019-04-10T11:15:10.089Z,24.60
2019-04-10T11:17:41.862Z,24.40
2019-04-10T11:20:15.186Z,24.60
2019-04-10T11:22:45.731Z,24.60
2019-04-10T11:25:16.152Z,24.80
2019-04-10T11:27:47.556Z,24.60
2019-04-10T11:30:18.457Z,24.90
2019-04-10T11:32:50.598Z,24.90
2019-04-10T11:35:21.808Z,25.00
2019-04-10T11:37:56.193Z,24.60
2019-04-10T11:40:26.735Z,24.40
2019-04-10T11:42:57.589Z,24.20
2019-04-10T11:45:34.787Z,24.20
2019-04-10T11:48:02.294Z,24.10
2019-04-10T11:50:34.834Z,24.40
2019-04-10T11:53:06.805Z,24.50
2019-04-10T11:55:43.662Z,24.60
2019-04-10T11:58:13.803Z,24.60
2019-04-10T12:00:50.587Z,24.70
2019-04-10T12:03:18.399Z,24.40
2019-04-10T12:05:54.799Z,24.40
2019-04-10T12:08:50.063Z,24.50
2019-04-10T12:14:00.839Z,24.60
2019-04-10T12:16:37.167Z,24.70
2019-04-10T12:19:07.869Z,25.10
2019-04-10T12:21:38.523Z,25.30
2019-04-10T12:24:09.519Z,25.00
2019-04-10T12:26:40.190Z,24.70
2019-04-10T12:29:14.114Z,24.90
2019-04-10T12:31:44.728Z,25.00
2019-04-10T12:34:16.205Z,25.40
2019-04-10T12:36:49.540Z,25.30
2019-04-10T12:39:21.123Z,25.00
2019-04-10T12:42:10.720Z,25.00
2019-04-10T12:44:57.837Z,25.00
2019-04-10T12:47:28.622Z,24.90
2019-04-10T12:50:00.235Z,25.20
2019-04-10T12:52:34.573Z,25.10
2019-04-10T12:55:08.158Z,25.10
2019-04-10T12:57:39.187Z,25.00
2019-04-10T13:00:15.992Z,24.60
2019-04-10T13:02:55.781Z,24.20
2019-04-10T13:05:27.330Z,23.70
2019-04-10T13:08:11.520Z,23.10
2019-04-10T13:10:54.729Z,22.90
2019-04-10T13:13:46.636Z,22.80
2019-04-10T13:16:18.888Z,22.90
2019-04-10T13:18:49.388Z,23.00
2019-04-10T13:21:22.845Z,23.10
2019-04-10T13:24:01.738Z,23.10
2019-04-10T13:29:40.550Z,23.20
2019-04-10T13:32:13.886Z,23.30
2019-04-10T13:34:49.317Z,23.60
2019-04-10T13:37:21.016Z,23.90
2019-04-10T13:40:01.505Z,24.10
2019-04-10T13:42:33.726Z,24.40
2019-04-10T13:45:19.367Z,24.40
2019-04-10T13:47:51.190Z,24.50
2019-04-10T13:50:28.004Z,24.40
2019-04-10T13:52:59.568Z,24.40
2019-04-10T13:55:30.524Z,24.30
2019-04-10T13:58:01.410Z,24.00
2019-04-10T14:00:40.545Z,23.40
2019-04-10T14:03:12.731Z,22.10
2019-04-10T14:05:43.390Z,20.10
2019-04-10T14:08:16.724Z,19.20
2019-04-10T14:10:50.868Z,18.90
2019-04-10T14:13:21.989Z,18.60
2019-04-10T14:15:52.841Z,18.40
2019-04-10T14:18:24.159Z,18.30
2019-04-10T14:21:11.199Z,18.40
2019-04-10T14:23:40.525Z,18.50
2019-04-10T14:26:12.666Z,18.50
2019-04-10T14:31:38.194Z,18.60
2019-04-10T14:34:10.302Z,18.80
2019-04-10T14:36:40.840Z,18.80
2019-04-10T14:39:19.224Z,18.80
2019-04-10T14:41:54.924Z,18.80
2019-04-10T14:44:25.559Z,18.70
2019-04-10T14:46:58.021Z,18.60
2019-04-10T14:49:31.340Z,18.60
2019-04-10T14:52:06.715Z,18.60
2019-04-10T14:54:39.678Z,18.60
2019-04-10T14:57:12.936Z,18.60
2019-04-10T14:59:44.229Z,18.50
2019-04-10T15:02:16.767Z,18.60
2019-04-10T15:04:47.745Z,18.70
2019-04-10T15:07:18.195Z,18.80
2019-04-10T15:09:48.583Z,18.90
2019-04-10T15:12:22.561Z,18.80
2019-04-10T15:15:02.389Z,19.00
2019-04-10T15:17:40.193Z,18.90
2019-04-10T15:20:17.535Z,18.90
2019-04-10T15:22:52.627Z,19.10
2019-04-10T15:25:28.303Z,19.20
2019-04-10T15:28:02.266Z,19.20
2019-04-10T15:30:35.497Z,19.10
2019-04-10T15:33:07.668Z,19.00
2019-04-10T15:35:41.815Z,19.00
2019-04-10T15:38:14.955Z,18.90
2019-04-10T15:40:46.144Z,18.90
2019-04-10T15:43:16.833Z,18.80
2019-04-10T15:45:48.308Z,18.70
2019-04-10T15:48:18.899Z,18.70
2019-04-10T15:50:51.791Z,18.60
2019-04-10T15:53:22.367Z,18.50
2019-04-10T15:55:53.715Z,18.50
2019-04-10T15:58:25.838Z,18.40
2019-04-10T16:00:57.205Z,18.40
2019-04-10T16:03:28.179Z,18.40
2019-04-10T16:05:59.066Z,18.40
2019-04-10T16:08:29.828Z,18.30
2019-04-10T16:11:02.004Z,18.30
2019-04-10T16:13:36.969Z,18.30
2019-04-10T16:16:12.109Z,18.30
2019-04-10T16:18:42.997Z,18.30
2019-04-10T16:21:13.873Z,18.20
2019-04-10T16:23:45.942Z,18.10
2019-04-10T16:26:16.911Z,18.00
2019-04-10T16:28:47.433Z,17.90
2019-04-10T16:31:18.012Z,17.90
2019-04-10T16:33:48.479Z,17.90
2019-04-10T16:36:19.300Z,17.90
2019-04-10T16:38:51.125Z,17.90
2019-04-10T16:41:22.060Z,17.90
2019-04-10T16:43:54.927Z,17.80
2019-04-10T16:46:25.784Z,17.70
2019-04-10T16:48:56.431Z,17.70
2019-04-10T16:51:28.045Z,17.60
2019-04-10T16:53:58.815Z,17.50
2019-04-10T16:56:31.834Z,17.40
2019-04-10T16:59:04.632Z,17.30
2019-04-10T17:01:35.542Z,17.10
2019-04-10T17:04:07.008Z,17.10
2019-04-10T17:06:38.706Z,17.10
2019-04-10T17:09:10.905Z,17.10
2019-04-10T17:11:42.782Z,17.00
2019-04-10T17:14:13.430Z,16.90
2019-04-10T17:16:44.209Z,16.70
2019-04-10T17:19:17.120Z,16.80
2019-04-10T17:21:50.352Z,16.60
2019-04-10T17:24:31.916Z,16.50
2019-04-10T17:27:08.293Z,16.40
2019-04-10T17:29:41.099Z,16.20
2019-04-10T17:32:13.254Z,16.20
2019-04-10T17:34:43.643Z,16.20
2019-04-10T17:37:26.093Z,16.10
2019-04-10T17:40:31.952Z,16.10
2019-04-10T17:43:10.620Z,16.00
2019-04-10T17:45:41.197Z,15.90
2019-04-10T17:48:13.783Z,15.80
2019-04-10T17:50:43.979Z,15.80
2019-04-10T17:53:25.098Z,15.70
2019-04-10T17:55:54.457Z,15.70
2019-04-10T17:58:31.645Z,15.70
2019-04-10T18:01:10.351Z,15.70
2019-04-10T18:03:49.003Z,15.60
2019-04-10T18:06:17.338Z,15.60
2019-04-10T18:12:08.010Z,15.50
2019-04-10T18:14:42.470Z,15.60
2019-04-10T18:17:18.559Z,15.50
2019-04-10T18:19:50.262Z,15.40
2019-04-10T18:22:22.630Z,15.40
2019-04-10T18:24:56.203Z,15.40
2019-04-10T18:27:32.393Z,15.50
2019-04-10T18:30:06.091Z,15.60
2019-04-10T18:32:37.981Z,15.70
2019-04-10T18:35:08.917Z,15.70
2019-04-10T18:37:41.962Z,15.70
2019-04-10T18:40:16.945Z,15.70
2019-04-10T18:42:47.902Z,15.70
2019-04-10T18:45:24.282Z,15.70
2019-04-10T18:48:06.822Z,15.60
2019-04-10T18:50:40.475Z,15.70
2019-04-10T18:53:11.559Z,15.60
2019-04-10T18:55:48.851Z,15.60
2019-04-10T18:58:23.412Z,15.60
2019-04-10T19:01:14.273Z,15.60
2019-04-10T19:03:53.379Z,15.60
2019-04-10T19:06:29.284Z,15.50
2019-04-10T19:09:10.209Z,15.50
2019-04-10T19:11:36.921Z,15.40
2019-04-10T19:14:10.271Z,15.40
2019-04-10T19:16:44.384Z,15.40
2019-04-10T19:19:15.050Z,15.30
2019-04-10T19:21:46.113Z,15.30
2019-04-10T19:24:19.714Z,15.20
2019-04-10T19:26:52.391Z,15.20
2019-04-10T19:29:23.436Z,15.20
2019-04-10T19:31:58.907Z,15.10
2019-04-10T19:34:29.626Z,15.20
2019-04-10T19:37:00.593Z,15.10
2019-04-10T19:39:32.225Z,15.10
2019-04-10T19:42:03.236Z,15.00
2019-04-10T19:44:35.060Z,15.00
2019-04-10T19:47:10.383Z,15.00
2019-04-10T19:49:41.357Z,15.00
2019-04-10T19:52:11.997Z,15.00
2019-04-10T19:54:43.008Z,15.10
2019-04-10T19:57:13.543Z,15.00
2019-04-10T19:59:46.050Z,15.00
2019-04-10T20:02:19.243Z,15.00
2019-04-10T20:04:50.574Z,15.00
2019-04-10T20:07:21.415Z,15.00
2019-04-10T20:09:52.806Z,14.90
2019-04-10T20:12:24.492Z,14.90
2019-04-10T20:14:55.533Z,14.90
2019-04-10T20:17:26.088Z,14.90
2019-04-10T20:19:58.699Z,14.90
2019-04-10T20:22:30.809Z,14.70
2019-04-10T20:25:02.161Z,14.70
2019-04-10T20:27:34.079Z,14.60
2019-04-10T20:30:09.805Z,14.70
2019-04-10T20:32:40.468Z,14.70
2019-04-10T20:35:11.930Z,14.60
2019-04-10T20:37:42.924Z,14.40
2019-04-10T20:40:13.878Z,14.30
2019-04-10T20:42:44.666Z,14.20
2019-04-10T20:45:15.855Z,14.20
2019-04-10T20:47:46.937Z,14.10
2019-04-10T20:50:19.685Z,14.10
2019-04-10T20:52:49.892Z,14.00
2019-04-10T20:55:21.568Z,13.90
2019-04-10T20:57:52.165Z,13.80
2019-04-10T21:00:34.732Z,13.70
2019-04-10T21:03:05.229Z,13.70
2019-04-10T21:05:38.379Z,13.70
2019-04-10T21:08:09.489Z,13.60
2019-04-10T21:10:40.894Z,13.60
2019-04-10T21:13:11.534Z,13.60
2019-04-10T21:15:44.314Z,13.50
2019-04-10T21:18:15.328Z,13.50
2019-04-10T21:20:45.908Z,13.50
2019-04-10T21:23:17.136Z,13.40
2019-04-10T21:25:49.817Z,13.50
2019-04-10T21:28:20.444Z,13.50
2019-04-10T21:31:09.779Z,13.50
2019-04-10T21:33:42.849Z,13.40
2019-04-10T21:36:13.840Z,13.50
2019-04-10T21:38:44.895Z,13.60
2019-04-10T21:41:16.849Z,13.60
2019-04-10T21:43:47.402Z,13.60
2019-04-10T21:46:19.998Z,13.50
2019-04-10T21:48:50.947Z,13.60
2019-04-10T21:51:21.733Z,13.60
2019-04-10T21:53:52.146Z,13.60
2019-04-10T21:56:22.600Z,13.60
2019-04-10T21:58:53.015Z,13.60
2019-04-10T22:01:24.867Z,13.60
2019-04-10T22:03:56.237Z,13.60
2019-04-10T22:06:28.417Z,13.50
2019-04-10T22:09:00.425Z,13.50
2019-04-10T22:11:31.065Z,13.50
2019-04-10T22:14:02.399Z,13.50
2019-04-10T22:16:33.700Z,13.50
2019-04-10T22:19:05.861Z,13.50
2019-04-10T22:21:42.530Z,13.50
2019-04-10T22:24:13.638Z,13.50
2019-04-10T22:26:44.595Z,13.40
2019-04-10T22:29:15.463Z,13.40
2019-04-10T22:31:49.231Z,13.50
2019-04-10T22:34:19.987Z,13.40
2019-04-10T22:36:53.410Z,13.40
2019-04-10T22:39:25.345Z,13.40
2019-04-10T22:41:56.903Z,13.40
2019-04-10T22:44:36.696Z,13.40
2019-04-10T22:47:01.396Z,13.40
2019-04-10T22:49:33.310Z,13.40
2019-04-10T22:52:04.686Z,13.40
2019-04-10T22:54:35.409Z,13.30
2019-04-10T22:57:06.877Z,13.30
2019-04-10T22:59:38.254Z,13.20
2019-04-10T23:02:11.760Z,13.20
2019-04-10T23:04:41.088Z,13.20
2019-04-10T23:07:11.759Z,13.10
2019-04-10T23:09:42.325Z,13.20
2019-04-10T23:12:12.737Z,13.20
2019-04-10T23:14:43.213Z,13.10
2019-04-10T23:17:14.657Z,13.10
2019-04-10T23:19:46.753Z,13.00
2019-04-10T23:22:17.489Z,13.10
2019-04-10T23:24:47.883Z,13.10
2019-04-10T23:27:18.322Z,13.00
2019-04-10T23:29:48.807Z,12.90
2019-04-10T23:32:19.460Z,12.90
2019-04-10T23:34:49.840Z,12.90
2019-04-10T23:37:20.526Z,12.80
2019-04-10T23:39:52.368Z,12.80
2019-04-10T23:42:23.393Z,12.80
2019-04-10T23:44:53.824Z,12.80
2019-04-10T23:47:24.300Z,12.80
2019-04-10T23:49:54.755Z,12.90
2019-04-10T23:52:25.513Z,12.90
2019-04-10T23:54:57.627Z,12.90
2019-04-10T23:57:29.381Z,12.90
